メインページ
METAR-TAF:

METAR-TAF

空港 :

ハルビン, 中華人民共和国

ハルビン太平国際空港

緯度: 45-45N, 経度: 126-46E, 海抜: 143m

現時点の気象観測

当レポートは30分前の16:00(UTC)に作成
西の風 4kt、南西から北/北西の間で変化する
気温 19°C
湿度 83%
気圧 1009 hPa
視程10km以上
1,500メートル以下は雲なし、積乱雲なし

METAR: ZYHB 221600Z 27002MPS 230V330 CAVOK 19/16 Q1009 NOSIG

時間: 00:30 (16:30 UTC)

予報

当レポートは7時間23分前の09:07(UTC)に作成
予報は22日の 12時(UTC)から 23日の 12時(UTC)まで有効
西の風 6kt
視程: 6000m
高度2600ftの雲は散在している

TAF: ZYHB 220907Z 2212/2312 26003MPS 6000 SCT026 TX30/2306Z TN16/2221Z

4,000以上の空港の気象観測と天気予報(METAR報とTAF報)

利用可能な観測所は地図上に黄色い丸と赤い丸で示す。

丸の上にカーソルを重ねると観測所名を参照できる。

次にクリックすると気象観測と天気予報を参照できる。

マップの切り替え:黒色「×」印の緑ボタンをクリックして拡大、「-」印の緑ボタンをクリックして縮小、緑色の三角印をクリックして隣りの地図に切り替え


METAR-TAF: